createdAt,value
2022-08-24T00:02:07.991Z,15.64
2022-08-24T00:04:41.097Z,15.60
2022-08-24T00:07:21.405Z,15.50
2022-08-24T00:09:56.505Z,15.49
2022-08-24T00:12:25.796Z,15.51
2022-08-24T00:14:56.108Z,15.36
2022-08-24T00:17:25.304Z,15.34
2022-08-24T00:19:54.496Z,15.35
2022-08-24T00:22:23.050Z,15.35
2022-08-24T00:24:51.621Z,15.39
2022-08-24T00:27:21.293Z,15.36
2022-08-24T00:29:49.640Z,15.34
2022-08-24T00:32:19.782Z,15.29
2022-08-24T00:34:58.680Z,15.32
2022-08-24T00:37:28.461Z,15.18
2022-08-24T00:39:57.286Z,15.19
2022-08-24T00:42:26.544Z,15.21
2022-08-24T00:44:54.938Z,15.27
2022-08-24T00:47:28.404Z,15.30
2022-08-24T00:50:01.928Z,15.25
2022-08-24T00:52:35.838Z,15.18
2022-08-24T00:55:25.139Z,15.11
2022-08-24T00:58:00.704Z,15.07
2022-08-24T01:00:35.660Z,15.01
2022-08-24T01:03:07.625Z,14.92
2022-08-24T01:05:39.542Z,14.90
2022-08-24T01:08:12.713Z,14.96
2022-08-24T01:10:47.294Z,14.98
2022-08-24T01:13:16.976Z,14.95
2022-08-24T01:15:49.076Z,14.85
2022-08-24T01:18:41.143Z,14.74
2022-08-24T01:21:17.555Z,14.70
2022-08-24T01:23:51.067Z,14.69
2022-08-24T01:26:26.672Z,14.73
2022-08-24T01:29:00.900Z,14.81
2022-08-24T01:31:30.607Z,14.85
2022-08-24T01:33:59.120Z,14.94
2022-08-24T01:36:37.164Z,14.91
2022-08-24T01:39:14.907Z,14.79
2022-08-24T01:41:43.555Z,14.80
2022-08-24T01:44:13.765Z,14.81
2022-08-24T01:46:45.743Z,14.70
2022-08-24T01:49:14.966Z,14.75
2022-08-24T01:51:46.317Z,14.80
2022-08-24T01:54:17.753Z,14.87
2022-08-24T01:56:46.285Z,14.85
2022-08-24T01:59:17.292Z,14.70
2022-08-24T02:01:57.830Z,14.59
2022-08-24T02:04:26.541Z,14.45
2022-08-24T02:06:56.849Z,14.40
2022-08-24T02:09:27.846Z,14.50
2022-08-24T02:12:02.647Z,14.60
2022-08-24T02:14:36.961Z,14.57
2022-08-24T02:17:06.644Z,14.58
2022-08-24T02:19:35.626Z,14.65
2022-08-24T02:22:06.050Z,14.63
2022-08-24T02:24:39.362Z,14.57
2022-08-24T02:27:08.519Z,14.59
2022-08-24T02:29:37.253Z,14.65
2022-08-24T02:32:07.138Z,14.68
2022-08-24T02:34:35.869Z,14.70
2022-08-24T02:37:04.495Z,14.63
2022-08-24T02:39:33.163Z,14.58
2022-08-24T02:42:07.811Z,14.52
2022-08-24T02:44:36.393Z,14.46
2022-08-24T02:47:05.092Z,14.38
2022-08-24T02:49:36.428Z,14.47
2022-08-24T02:52:05.910Z,14.42
2022-08-24T02:54:37.433Z,14.38
2022-08-24T02:57:07.348Z,14.44
2022-08-24T02:59:36.647Z,14.35
2022-08-24T03:02:06.065Z,14.16
2022-08-24T03:04:34.624Z,13.98
2022-08-24T03:07:05.686Z,13.82
2022-08-24T03:09:34.114Z,13.82
2022-08-24T03:12:02.552Z,13.91
2022-08-24T03:14:32.552Z,13.90
2022-08-24T03:17:00.936Z,13.91
2022-08-24T03:19:30.249Z,13.83
2022-08-24T03:21:58.804Z,13.82
2022-08-24T03:24:27.733Z,13.88
2022-08-24T03:26:56.741Z,13.87
2022-08-24T03:29:28.017Z,13.92
2022-08-24T03:32:05.046Z,14.13
2022-08-24T03:34:33.838Z,14.21
2022-08-24T03:37:02.751Z,14.21
2022-08-24T03:39:31.383Z,14.16
2022-08-24T03:42:00.076Z,14.07
2022-08-24T03:44:28.427Z,14.05
2022-08-24T03:46:57.593Z,14.06
2022-08-24T03:49:29.355Z,13.98
2022-08-24T03:51:57.663Z,13.91
2022-08-24T03:54:26.045Z,13.90
2022-08-24T03:56:54.468Z,13.90
2022-08-24T03:59:22.953Z,13.96
2022-08-24T04:01:56.108Z,13.98
2022-08-24T04:04:26.153Z,13.96
2022-08-24T04:06:56.007Z,13.93
2022-08-24T04:09:26.573Z,13.92
2022-08-24T04:11:57.866Z,13.94
2022-08-24T04:14:28.103Z,13.92
2022-08-24T04:17:03.055Z,13.92
2022-08-24T04:19:36.214Z,13.99
2022-08-24T04:22:06.611Z,14.03
2022-08-24T04:24:34.974Z,14.03
2022-08-24T04:27:03.772Z,14.00
2022-08-24T04:29:34.108Z,13.98
2022-08-24T04:32:03.080Z,13.96
2022-08-24T04:34:31.759Z,14.00
2022-08-24T04:37:00.312Z,13.98
2022-08-24T04:39:31.341Z,13.91
2022-08-24T04:42:25.801Z,13.81
2022-08-24T04:44:54.834Z,13.72
2022-08-24T04:47:25.686Z,13.79
2022-08-24T04:49:54.515Z,13.90
2022-08-24T04:52:23.072Z,13.97
2022-08-24T04:54:52.783Z,13.99
2022-08-24T04:57:24.552Z,14.11
2022-08-24T04:59:57.535Z,14.31
2022-08-24T05:02:25.887Z,14.40
2022-08-24T05:04:58.629Z,14.46
2022-08-24T05:07:27.235Z,14.59
2022-08-24T05:09:57.842Z,14.77
2022-08-24T05:12:28.036Z,14.95
2022-08-24T05:15:02.905Z,15.05
2022-08-24T05:17:36.710Z,15.12
2022-08-24T05:20:08.468Z,15.25
2022-08-24T05:22:38.605Z,15.30
2022-08-24T05:25:09.716Z,15.40
2022-08-24T05:27:38.218Z,15.46
2022-08-24T05:30:08.168Z,15.56
2022-08-24T05:32:36.518Z,15.69
2022-08-24T05:35:06.893Z,15.79
2022-08-24T05:37:37.228Z,15.92
2022-08-24T05:40:33.460Z,16.16
2022-08-24T05:43:02.656Z,16.45
2022-08-24T05:45:31.807Z,16.74
2022-08-24T05:48:00.296Z,17.10
2022-08-24T05:50:54.457Z,17.70
2022-08-24T05:53:24.324Z,18.01
2022-08-24T05:55:54.393Z,18.34
2022-08-24T05:58:23.031Z,18.52
2022-08-24T06:01:05.984Z,18.48
2022-08-24T06:03:34.945Z,18.49
2022-08-24T06:06:07.186Z,18.76
2022-08-24T06:08:41.042Z,19.33
2022-08-24T06:11:12.330Z,19.90
2022-08-24T06:13:41.134Z,20.30
2022-08-24T06:16:21.829Z,20.45
2022-08-24T06:18:53.198Z,20.59
2022-08-24T06:21:28.276Z,20.77
2022-08-24T06:23:59.705Z,20.90
2022-08-24T06:26:49.124Z,21.07
2022-08-24T06:29:20.241Z,21.20
2022-08-24T06:31:54.792Z,21.52
2022-08-24T06:34:26.633Z,22.01
2022-08-24T06:36:55.481Z,22.29
2022-08-24T06:39:26.844Z,22.37
2022-08-24T06:41:59.407Z,22.28
2022-08-24T06:44:32.932Z,22.23
2022-08-24T06:47:12.466Z,22.72
2022-08-24T06:49:42.810Z,23.11
2022-08-24T06:52:12.236Z,23.10
2022-08-24T06:54:41.075Z,23.22
2022-08-24T06:57:10.825Z,23.20
2022-08-24T06:59:43.101Z,23.04
2022-08-24T07:02:15.761Z,23.03
2022-08-24T07:04:45.124Z,23.24
2022-08-24T07:07:31.907Z,23.58
2022-08-24T07:10:02.830Z,23.67
2022-08-24T07:12:32.557Z,23.95
2022-08-24T07:15:00.995Z,23.81
2022-08-24T07:17:29.790Z,23.93
2022-08-24T07:19:58.273Z,24.09
2022-08-24T07:22:47.368Z,23.97
2022-08-24T07:25:16.410Z,23.87
2022-08-24T07:27:46.141Z,24.19
2022-08-24T07:30:26.836Z,24.26
2022-08-24T07:32:58.812Z,24.39
2022-08-24T07:35:32.401Z,24.43
2022-08-24T07:38:02.623Z,24.65
2022-08-24T07:40:36.451Z,25.01
2022-08-24T07:43:20.941Z,25.41
2022-08-24T07:45:51.189Z,25.53
2022-08-24T07:48:20.735Z,25.31
2022-08-24T07:50:49.698Z,25.73
2022-08-24T07:53:20.811Z,26.12
2022-08-24T07:55:56.631Z,26.05
2022-08-24T07:58:27.681Z,25.95
2022-08-24T08:00:58.795Z,26.00
2022-08-24T08:03:29.433Z,26.39
2022-08-24T08:06:00.811Z,26.81
2022-08-24T08:08:31.155Z,26.61
2022-08-24T08:11:02.674Z,27.05
2022-08-24T08:13:32.817Z,26.94
2022-08-24T08:16:06.483Z,26.65
2022-08-24T08:18:37.230Z,26.90
2022-08-24T08:21:31.097Z,26.75
2022-08-24T08:24:20.464Z,27.03
2022-08-24T08:26:54.364Z,27.37
2022-08-24T08:29:32.651Z,27.41
2022-08-24T08:32:01.813Z,27.57
2022-08-24T08:34:31.460Z,27.92
2022-08-24T08:37:03.016Z,28.29
2022-08-24T08:39:33.147Z,28.15
2022-08-24T08:42:39.500Z,29.15
2022-08-24T08:45:31.847Z,28.65
2022-08-24T08:49:11.216Z,28.13
2022-08-24T08:52:36.944Z,28.16
2022-08-24T08:55:25.062Z,28.73
2022-08-24T08:58:26.378Z,28.48
2022-08-24T09:01:10.547Z,28.98
2022-08-24T09:04:26.677Z,29.59
2022-08-24T09:07:23.021Z,30.12
2022-08-24T09:10:54.668Z,30.43
2022-08-24T09:13:45.825Z,30.19
2022-08-24T09:17:10.877Z,29.51
2022-08-24T09:20:07.420Z,29.04
2022-08-24T09:22:43.454Z,29.50
2022-08-24T09:25:26.566Z,30.43
2022-08-24T09:28:43.714Z,30.68
2022-08-24T09:32:15.068Z,30.20
2022-08-24T09:34:59.674Z,30.31
2022-08-24T09:37:43.745Z,30.28
2022-08-24T09:40:37.968Z,31.28
2022-08-24T09:44:05.589Z,31.54
2022-08-24T09:47:15.405Z,30.93
2022-08-24T09:50:30.684Z,30.92
2022-08-24T09:53:42.453Z,31.59
2022-08-24T09:56:40.189Z,32.58
2022-08-24T09:59:50.891Z,30.12
2022-08-24T10:02:50.083Z,30.69
2022-08-24T10:05:34.648Z,31.35
2022-08-24T10:08:23.113Z,31.94
2022-08-24T10:11:01.657Z,32.35
2022-08-24T10:13:41.610Z,32.48
2022-08-24T10:16:28.842Z,32.12
2022-08-24T10:19:21.781Z,32.08
2022-08-24T10:22:03.711Z,32.18
2022-08-24T10:24:56.950Z,32.25
2022-08-24T10:27:46.320Z,32.72
2022-08-24T10:30:48.375Z,32.78
2022-08-24T10:33:24.049Z,33.05
2022-08-24T10:36:43.944Z,33.28
2022-08-24T10:39:43.828Z,33.34
2022-08-24T10:43:24.034Z,33.52
2022-08-24T10:46:34.165Z,32.99
2022-08-24T10:50:07.460Z,32.89
2022-08-24T10:53:32.528Z,32.67
2022-08-24T10:56:11.883Z,33.03
2022-08-24T10:58:51.777Z,33.53
2022-08-24T11:01:30.141Z,33.10
2022-08-24T11:04:04.667Z,32.95
2022-08-24T11:06:36.692Z,33.25
2022-08-24T11:09:14.825Z,33.39
2022-08-24T11:11:49.805Z,33.54
2022-08-24T11:14:29.263Z,33.35
2022-08-24T11:17:20.630Z,33.09
2022-08-24T11:19:56.209Z,33.43
2022-08-24T11:22:37.986Z,33.65
2022-08-24T11:25:16.928Z,33.54
2022-08-24T11:27:49.148Z,33.39
2022-08-24T11:30:26.751Z,34.05
2022-08-24T11:32:59.939Z,34.03
2022-08-24T11:35:36.909Z,32.99
2022-08-24T11:38:14.982Z,33.16
2022-08-24T11:40:51.436Z,32.29
2022-08-24T11:43:36.014Z,31.38
2022-08-24T11:46:19.326Z,30.24
2022-08-24T11:49:07.883Z,28.95
2022-08-24T11:51:48.027Z,28.31
2022-08-24T11:54:32.105Z,27.97
2022-08-24T11:57:12.283Z,27.65
2022-08-24T11:59:53.298Z,27.92
2022-08-24T12:02:34.070Z,29.88
2022-08-24T12:05:14.313Z,31.98
2022-08-24T12:08:01.974Z,31.68
2022-08-24T12:10:43.521Z,30.37
2022-08-24T12:13:34.089Z,30.06
2022-08-24T12:16:13.489Z,28.22
2022-08-24T12:18:54.240Z,28.03
2022-08-24T12:21:29.203Z,28.89
2022-08-24T12:24:04.660Z,29.20
2022-08-24T12:26:43.071Z,27.60
2022-08-24T12:29:23.984Z,27.49
2022-08-24T12:31:58.437Z,28.62
2022-08-24T12:34:40.399Z,29.14
2022-08-24T12:37:16.915Z,28.81
2022-08-24T12:39:51.140Z,28.49
2022-08-24T12:42:26.704Z,27.42
2022-08-24T12:45:02.231Z,26.63
2022-08-24T12:47:36.518Z,26.64
2022-08-24T12:50:13.573Z,26.70
2022-08-24T12:53:24.205Z,26.31
2022-08-24T12:56:35.083Z,25.86
2022-08-24T12:59:19.562Z,25.87
2022-08-24T13:02:00.908Z,25.98
2022-08-24T13:04:40.620Z,26.50
2022-08-24T13:07:27.399Z,27.03
2022-08-24T13:10:12.011Z,28.00
2022-08-24T13:13:24.201Z,29.27
2022-08-24T13:16:03.663Z,31.24
2022-08-24T13:19:35.089Z,29.35
2022-08-24T13:23:01.269Z,27.24
2022-08-24T13:25:54.440Z,26.33
2022-08-24T13:28:40.745Z,25.70
2022-08-24T13:31:22.514Z,25.98
2022-08-24T13:33:56.219Z,25.64
2022-08-24T13:37:05.946Z,25.90
2022-08-24T13:40:18.349Z,26.04
2022-08-24T13:43:20.140Z,25.94
2022-08-24T13:45:56.678Z,26.29
2022-08-24T13:48:43.161Z,26.53
2022-08-24T13:51:35.991Z,26.13
2022-08-24T13:54:33.128Z,26.06
2022-08-24T13:57:28.755Z,26.37
2022-08-24T14:00:32.650Z,26.73
2022-08-24T14:03:24.420Z,27.24
2022-08-24T14:05:58.128Z,26.68
2022-08-24T14:08:42.075Z,26.44
2022-08-24T14:11:21.058Z,27.28
2022-08-24T14:14:07.573Z,28.02
2022-08-24T14:17:19.966Z,28.29
2022-08-24T14:20:01.590Z,28.71
2022-08-24T14:22:38.238Z,29.44
2022-08-24T14:25:21.056Z,30.31
2022-08-24T14:28:34.461Z,30.97
2022-08-24T14:31:28.328Z,31.04
2022-08-24T14:34:17.405Z,31.84
2022-08-24T14:36:58.274Z,31.66
2022-08-24T14:39:40.821Z,31.93
2022-08-24T14:42:22.621Z,32.44
2022-08-24T14:45:05.895Z,32.34
2022-08-24T14:47:57.509Z,32.29
2022-08-24T14:50:39.609Z,32.18
2022-08-24T14:53:43.785Z,30.87
2022-08-24T14:56:25.372Z,28.76
2022-08-24T14:59:07.198Z,28.00
2022-08-24T15:01:43.850Z,27.23
2022-08-24T15:04:38.175Z,26.41
2022-08-24T15:07:30.153Z,25.96
2022-08-24T15:10:00.722Z,25.68
2022-08-24T15:12:42.238Z,25.36
2022-08-24T15:15:21.392Z,25.36
2022-08-24T15:18:09.647Z,25.10
2022-08-24T15:20:59.397Z,25.19
2022-08-24T15:23:49.349Z,25.18
2022-08-24T15:26:31.508Z,25.36
2022-08-24T15:29:00.946Z,25.55
2022-08-24T15:31:31.119Z,26.12
2022-08-24T15:34:05.452Z,26.15
2022-08-24T15:36:34.767Z,26.11
2022-08-24T15:39:05.676Z,26.33
2022-08-24T15:41:41.807Z,26.34
2022-08-24T15:44:24.870Z,26.57
2022-08-24T15:46:58.736Z,26.81
2022-08-24T15:49:34.816Z,26.69
2022-08-24T15:52:07.214Z,26.09
2022-08-24T15:54:42.533Z,26.43
2022-08-24T15:57:28.244Z,26.40
2022-08-24T16:00:10.244Z,26.33
2022-08-24T16:02:38.888Z,25.77
2022-08-24T16:05:21.777Z,25.61
2022-08-24T16:08:13.377Z,25.37
2022-08-24T16:10:46.260Z,25.07
2022-08-24T16:13:29.690Z,25.33
2022-08-24T16:16:05.107Z,25.33
2022-08-24T16:18:50.000Z,25.16
2022-08-24T16:21:33.906Z,24.75
2022-08-24T16:24:08.966Z,24.72
2022-08-24T16:26:56.464Z,25.23
2022-08-24T16:29:51.071Z,25.65
2022-08-24T16:32:30.683Z,25.68
2022-08-24T16:35:21.743Z,25.61
2022-08-24T16:37:52.407Z,25.42
2022-08-24T16:40:21.113Z,25.34
2022-08-24T16:42:50.375Z,25.15
2022-08-24T16:45:22.610Z,24.89
2022-08-24T16:47:51.337Z,24.66
2022-08-24T16:50:22.671Z,24.51
2022-08-24T16:52:57.226Z,24.32
2022-08-24T16:55:28.318Z,24.03
2022-08-24T16:57:57.440Z,23.92
2022-08-24T17:00:25.707Z,23.68
2022-08-24T17:02:54.953Z,23.51
2022-08-24T17:05:23.748Z,23.33
2022-08-24T17:07:52.678Z,23.21
2022-08-24T17:10:24.149Z,23.03
2022-08-24T17:12:52.683Z,22.87
2022-08-24T17:15:21.676Z,22.75
2022-08-24T17:17:59.968Z,22.67
2022-08-24T17:20:29.391Z,22.60
2022-08-24T17:22:59.182Z,22.54
2022-08-24T17:25:30.619Z,22.47
2022-08-24T17:28:01.187Z,22.38
2022-08-24T17:30:30.122Z,22.26
2022-08-24T17:32:59.879Z,22.09
2022-08-24T17:35:28.374Z,21.93
2022-08-24T17:37:57.085Z,21.79
2022-08-24T17:40:29.917Z,21.74
2022-08-24T17:42:58.483Z,21.64
2022-08-24T17:45:26.972Z,21.56
2022-08-24T17:47:55.317Z,21.51
2022-08-24T17:50:24.814Z,21.37
2022-08-24T17:52:59.148Z,21.25
2022-08-24T17:55:30.353Z,21.08
2022-08-24T17:57:59.740Z,20.94
2022-08-24T18:00:28.045Z,20.79
2022-08-24T18:02:56.389Z,20.67
2022-08-24T18:05:25.131Z,20.55
2022-08-24T18:07:56.748Z,20.48
2022-08-24T18:10:28.015Z,20.39
2022-08-24T18:12:59.381Z,20.36
2022-08-24T18:15:35.618Z,20.31
2022-08-24T18:18:09.239Z,20.13
2022-08-24T18:20:41.445Z,20.09
2022-08-24T18:23:12.010Z,19.98
2022-08-24T18:25:48.656Z,19.90
2022-08-24T18:28:23.909Z,19.75
2022-08-24T18:30:53.294Z,19.58
2022-08-24T18:33:21.942Z,19.51
2022-08-24T18:35:50.402Z,19.41
2022-08-24T18:38:18.756Z,19.43
2022-08-24T18:40:52.774Z,19.35
2022-08-24T18:43:25.230Z,19.24
2022-08-24T18:45:54.910Z,19.22
2022-08-24T18:48:23.985Z,19.20
2022-08-24T18:50:54.759Z,19.17
2022-08-24T18:53:27.594Z,19.16
2022-08-24T18:55:56.526Z,19.13
2022-08-24T18:58:26.179Z,19.10
2022-08-24T19:00:56.930Z,19.10
2022-08-24T19:03:27.236Z,19.04
2022-08-24T19:05:56.291Z,18.98
2022-08-24T19:08:24.988Z,18.97
2022-08-24T19:10:54.002Z,19.00
2022-08-24T19:13:22.720Z,19.00
2022-08-24T19:15:52.794Z,18.91
2022-08-24T19:18:23.626Z,18.90
2022-08-24T19:20:56.171Z,18.94
2022-08-24T19:23:30.030Z,18.98
2022-08-24T19:25:59.765Z,18.98
2022-08-24T19:28:28.827Z,18.98
2022-08-24T19:31:03.558Z,19.08
2022-08-24T19:33:40.935Z,19.05
2022-08-24T19:36:09.727Z,18.99
2022-08-24T19:38:38.374Z,18.93
2022-08-24T19:41:10.715Z,18.88
2022-08-24T19:43:56.681Z,18.81
2022-08-24T19:46:26.454Z,18.82
2022-08-24T19:48:55.393Z,18.87
2022-08-24T19:51:23.891Z,18.77
2022-08-24T19:53:52.449Z,18.69
2022-08-24T19:56:20.915Z,18.62
2022-08-24T19:58:59.336Z,18.60
2022-08-24T20:01:34.514Z,18.68
2022-08-24T20:04:06.087Z,18.64
2022-08-24T20:06:35.824Z,18.62
2022-08-24T20:09:05.685Z,18.58
2022-08-24T20:11:34.285Z,18.55
2022-08-24T20:14:03.270Z,18.46
2022-08-24T20:16:42.522Z,18.37
2022-08-24T20:19:12.768Z,18.32
2022-08-24T20:21:41.269Z,18.26
2022-08-24T20:24:11.268Z,18.25
2022-08-24T20:26:44.369Z,18.27
2022-08-24T20:29:15.189Z,18.26
2022-08-24T20:31:46.852Z,18.18
2022-08-24T20:34:18.832Z,18.12
2022-08-24T20:36:51.008Z,18.17
2022-08-24T20:39:26.439Z,18.18
2022-08-24T20:41:55.406Z,18.13
2022-08-24T20:44:24.389Z,18.09
2022-08-24T20:46:55.099Z,18.09
2022-08-24T20:49:27.876Z,18.23
2022-08-24T20:51:56.158Z,18.37
2022-08-24T20:54:24.384Z,18.49
2022-08-24T20:56:52.715Z,18.45
2022-08-24T20:59:21.512Z,18.41
2022-08-24T21:01:50.563Z,18.40
2022-08-24T21:04:20.279Z,18.40
2022-08-24T21:06:50.945Z,18.37
2022-08-24T21:09:19.859Z,18.39
2022-08-24T21:11:48.334Z,18.41
2022-08-24T21:14:16.967Z,18.40
2022-08-24T21:16:46.174Z,18.40
2022-08-24T21:19:17.631Z,18.31
2022-08-24T21:21:48.405Z,18.22
2022-08-24T21:24:17.742Z,18.17
2022-08-24T21:26:46.870Z,18.18
2022-08-24T21:29:15.514Z,18.12
2022-08-24T21:32:03.799Z,18.03
2022-08-24T21:34:43.254Z,18.03
2022-08-24T21:37:17.845Z,18.02
2022-08-24T21:39:47.545Z,17.98
2022-08-24T21:42:20.073Z,18.00
2022-08-24T21:44:48.769Z,17.91
2022-08-24T21:47:17.390Z,17.84
2022-08-24T21:49:45.984Z,17.92
2022-08-24T21:52:16.144Z,17.94
2022-08-24T21:54:45.034Z,17.88
2022-08-24T21:57:13.363Z,17.82
2022-08-24T21:59:41.565Z,17.78
2022-08-24T22:02:09.837Z,17.84
2022-08-24T22:04:42.216Z,17.88
2022-08-24T22:07:10.463Z,17.94
2022-08-24T22:09:40.553Z,17.94
2022-08-24T22:12:09.633Z,17.96
2022-08-24T22:14:38.274Z,17.88
2022-08-24T22:17:06.550Z,17.90
2022-08-24T22:19:34.874Z,17.87
2022-08-24T22:22:03.232Z,17.85
2022-08-24T22:24:31.822Z,17.86
2022-08-24T22:27:01.764Z,17.88
2022-08-24T22:29:30.041Z,17.91
2022-08-24T22:31:58.614Z,17.88
2022-08-24T22:34:27.261Z,17.80
2022-08-24T22:36:59.243Z,17.80
2022-08-24T22:39:27.475Z,17.73
2022-08-24T22:41:56.294Z,17.69
2022-08-24T22:44:27.765Z,17.63
2022-08-24T22:46:59.397Z,17.66
2022-08-24T22:49:31.970Z,17.70
2022-08-24T22:52:00.838Z,17.76
2022-08-24T22:54:30.290Z,17.71
2022-08-24T22:56:59.134Z,17.72
2022-08-24T22:59:34.999Z,17.68
2022-08-24T23:02:06.628Z,17.56
2022-08-24T23:04:38.923Z,17.52
2022-08-24T23:07:09.631Z,17.54
2022-08-24T23:09:44.925Z,17.69
2022-08-24T23:12:22.416Z,17.84
2022-08-24T23:14:53.760Z,17.84
2022-08-24T23:17:23.045Z,17.80
2022-08-24T23:20:05.562Z,17.76
2022-08-24T23:22:38.334Z,17.73
2022-08-24T23:25:09.654Z,17.70
2022-08-24T23:27:38.959Z,17.65
2022-08-24T23:30:13.989Z,17.58
2022-08-24T23:32:43.809Z,17.56
2022-08-24T23:35:12.491Z,17.53
2022-08-24T23:37:40.828Z,17.50
2022-08-24T23:40:10.930Z,17.50
2022-08-24T23:42:39.201Z,17.47
2022-08-24T23:45:12.222Z,17.45
2022-08-24T23:47:41.799Z,17.44
2022-08-24T23:50:11.687Z,17.38
2022-08-24T23:52:41.227Z,17.37
2022-08-24T23:55:21.279Z,17.31
2022-08-24T23:57:52.195Z,17.35
